Seagoville's Hourly Summary for Tuesday, May 15, 2018
Hour Temp
(f)
RH
(%)
Solar Rad.
(MJ/m2)
Rainfall
(in)
Wind
(mph)
5/15/2018 12:00 AM 75 77 0 0 4.13
5/15/2018 1:00 AM 73 77 0 0 4.14
5/15/2018 2:00 AM 74 75 0 0 5.67
5/15/2018 3:00 AM 74 75 0 0 5.01
5/15/2018 4:00 AM 73 76 0 0 4.03
5/15/2018 5:00 AM 72 77 0 0 3.83
5/15/2018 6:00 AM 72 79 0.01 0 0.9
5/15/2018 7:00 AM 71 82 0.21 0 3.47
5/15/2018 8:00 AM 73 78 0.7 0 6.94
5/15/2018 9:00 AM 74 79 0.41 0 5.57
5/15/2018 10:00 AM 75 75 0.73 0 5.6
5/15/2018 11:00 AM 74 79 0.66 0 4.93
5/15/2018 12:00 PM 77 72 1.19 0 5.31
5/15/2018 1:00 PM 79 69 1.51 0 5.25
5/15/2018 2:00 PM 80 63 1.51 0 4.56
5/15/2018 3:00 PM 83 46 2.65 0 5.76
5/15/2018 4:00 PM 84 49 1.47 0 3.75
5/15/2018 5:00 PM 83 52 0.64 0 1.44
5/15/2018 6:00 PM 82 60 0.5 0 1.92
5/15/2018 7:00 PM 81 59 0.29 0 3.29
5/15/2018 8:00 PM 76 63 0.01 0 8
5/15/2018 9:00 PM 73 71 0 0 4.08
5/15/2018 10:00 PM 72 75 0 0 0.17
5/15/2018 11:00 PM 70 77 0 0 0.53
Data Summary 75 70 12.49 0.00 4.10